Time;durP1;ratioP1;P1;durP2;ratioP2;P2;SDS_P1;SDS_P2;PMS_P1;PMS_P2;Temp;Humidity;BMP_temperature;BMP_pressure;BME280_temperature;BME280_humidity;BME280_pressure;Samples;Min_cycle;Max_cycle;Signal;HPM_P1;HPM_P2
2022/11/16 00:00:49;;;;;;;17.90;9.55;;;;;;;;;;5031743;28;20048;-71
2022/11/16 00:03:16;;;;;;;19.75;10.85;;;;;;;;;;5048141;28;20624;-71
2022/11/16 00:05:45;;;;;;;17.88;10.80;;;;;;;;;;5033283;28;20052;-71
2022/11/16 00:08:12;;;;;;;13.25;9.55;;;;;;;;;;5048140;28;20048;-70
2022/11/16 00:10:39;;;;;;;23.75;11.82;;;;;;;;;;5046597;28;20056;-71
2022/11/16 00:13:07;;;;;;;18.27;10.35;;;;;;;;;;5046990;28;20425;-70
2022/11/16 00:15:35;;;;;;;25.10;13.25;;;;;;;;;;5046027;28;20068;-70
2022/11/16 00:18:02;;;;;;;21.88;12.30;;;;;;;;;;5046798;28;20049;-71
2022/11/16 00:20:29;;;;;;;16.27;10.40;;;;;;;;;;5048623;28;20056;-70
2022/11/16 00:22:58;;;;;;;25.80;12.93;;;;;;;;;;5051752;28;20135;-70
2022/11/16 00:25:25;;;;;;;22.23;13.20;;;;;;;;;;5044279;28;20060;-71
2022/11/16 00:27:52;;;;;;;24.05;12.68;;;;;;;;;;5051760;28;20085;-70
2022/11/16 00:30:19;;;;;;;27.75;13.82;;;;;;;;;;5046680;28;20491;-70
2022/11/16 00:32:47;;;;;;;37.42;15.45;;;;;;;;;;5051581;28;20428;-71
2022/11/16 00:35:14;;;;;;;34.40;14.68;;;;;;;;;;5046243;28;20056;-70
2022/11/16 00:37:41;;;;;;;26.85;13.23;;;;;;;;;;5043842;28;20053;-71
2022/11/16 00:40:11;;;;;;;25.00;12.98;;;;;;;;;;5051634;28;20132;-70
2022/11/16 00:42:38;;;;;;;26.15;13.82;;;;;;;;;;5045704;28;20055;-71
2022/11/16 00:45:06;;;;;;;36.70;16.10;;;;;;;;;;5034331;28;20060;-71
2022/11/16 00:47:33;;;;;;;32.28;15.82;;;;;;;;;;5028589;28;20057;-71
2022/11/16 00:50:00;;;;;;;42.70;16.65;;;;;;;;;;5032901;28;20495;-70
2022/11/16 00:52:28;;;;;;;22.55;13.38;;;;;;;;;;5029796;28;20159;-71
2022/11/16 00:54:56;;;;;;;22.05;14.07;;;;;;;;;;5028484;28;20799;-70
2022/11/16 00:57:25;;;;;;;23.83;13.07;;;;;;;;;;5048301;28;20068;-71
2022/11/16 00:59:52;;;;;;;39.58;16.90;;;;;;;;;;5043495;28;20049;-70
2022/11/16 01:02:19;;;;;;;23.70;14.90;;;;;;;;;;5043640;28;20052;-71
2022/11/16 01:04:47;;;;;;;25.88;14.30;;;;;;;;;;5044936;28;20171;-71
2022/11/16 01:07:14;;;;;;;28.33;16.40;;;;;;;;;;5045472;28;20056;-70
2022/11/16 01:09:41;;;;;;;26.35;16.20;;;;;;;;;;5032618;28;20041;-70
2022/11/16 01:12:08;;;;;;;38.15;18.20;;;;;;;;;;5044617;28;20045;-71
2022/11/16 01:14:37;;;;;;;34.97;17.73;;;;;;;;;;5047309;28;20099;-71
2022/11/16 01:17:05;;;;;;;39.38;18.83;;;;;;;;;;5048007;28;20099;-71
2022/11/16 01:19:32;;;;;;;25.55;15.82;;;;;;;;;;5044814;28;20092;-71
2022/11/16 01:22:00;;;;;;;34.88;18.70;;;;;;;;;;5046363;28;20407;-71
2022/11/16 01:24:27;;;;;;;38.17;19.23;;;;;;;;;;5047587;28;20480;-70
2022/11/16 01:26:55;;;;;;;39.00;19.38;;;;;;;;;;5048113;28;20048;-70
2022/11/16 01:29:23;;;;;;;35.53;19.52;;;;;;;;;;5046507;28;20051;-71
2022/11/16 01:31:52;;;;;;;39.63;19.92;;;;;;;;;;5031658;28;20057;-70
2022/11/16 01:34:19;;;;;;;39.13;20.27;;;;;;;;;;5045608;28;20060;-70
2022/11/16 01:36:46;;;;;;;32.72;19.40;;;;;;;;;;5045719;28;20379;-71
2022/11/16 01:39:13;;;;;;;78.97;25.00;;;;;;;;;;5040043;28;20048;-71
2022/11/16 01:41:41;;;;;;;56.38;23.90;;;;;;;;;;5044832;28;20556;-71
2022/11/16 01:44:24;;;;;;;75.85;25.17;;;;;;;;;;5045808;28;20061;-70
2022/11/16 01:46:52;;;;;;;39.67;20.67;;;;;;;;;;5040055;28;20056;-70
2022/11/16 01:49:21;;;;;;;78.57;26.35;;;;;;;;;;5049467;28;20049;-70
2022/11/16 01:51:50;;;;;;;47.22;23.02;;;;;;;;;;5048874;28;20044;-69
2022/11/16 01:54:21;;;;;;;48.38;23.30;;;;;;;;;;5043801;28;20045;-70
2022/11/16 01:56:49;;;;;;;70.45;25.52;;;;;;;;;;5021598;28;20061;-71
2022/11/16 01:59:17;;;;;;;109.95;30.05;;;;;;;;;;5030764;28;20061;-70
2022/11/16 02:01:44;;;;;;;51.47;24.08;;;;;;;;;;5043267;28;20040;-71
2022/11/16 02:04:14;;;;;;;35.75;22.13;;;;;;;;;;5045832;28;20064;-70
2022/11/16 02:06:52;;;;;;;77.93;27.35;;;;;;;;;;5045011;28;20053;-70
2022/11/16 02:12:23;;;;;;;39.67;22.88;;;;;;;;;;5044786;28;20515;-70
2022/11/16 02:14:57;;;;;;;71.55;27.23;;;;;;;;;;5023853;28;20061;-70
2022/11/16 02:17:28;;;;;;;42.55;23.48;;;;;;;;;;5044593;28;20103;-70
2022/11/16 02:20:14;;;;;;;69.43;26.38;;;;;;;;;;5038242;28;20045;-70
2022/11/16 02:22:52;;;;;;;62.08;26.05;;;;;;;;;;5045743;28;20061;-69
2022/11/16 02:25:27;;;;;;;42.85;24.95;;;;;;;;;;5046089;28;20111;-70
2022/11/16 02:28:10;;;;;;;58.13;26.90;;;;;;;;;;5017881;28;20053;-70
2022/11/16 02:30:41;;;;;;;82.57;28.98;;;;;;;;;;5041494;28;20151;-71
2022/11/16 02:33:10;;;;;;;91.72;30.17;;;;;;;;;;5027349;28;20131;-74
2022/11/16 02:35:39;;;;;;;46.22;24.27;;;;;;;;;;5024376;28;20052;-72
2022/11/16 02:38:08;;;;;;;73.40;28.83;;;;;;;;;;5043429;28;20060;-73
2022/11/16 02:40:36;;;;;;;72.88;27.67;;;;;;;;;;5049445;28;20056;-73
2022/11/16 02:43:06;;;;;;;82.75;29.73;;;;;;;;;;5027795;28;20128;-74
2022/11/16 02:45:35;;;;;;;118.18;32.53;;;;;;;;;;5027178;28;20075;-71
2022/11/16 02:48:06;;;;;;;79.82;29.73;;;;;;;;;;5026339;28;20486;-72
2022/11/16 02:50:34;;;;;;;61.50;27.63;;;;;;;;;;5027904;28;20448;-72
2022/11/16 02:53:01;;;;;;;49.55;26.70;;;;;;;;;;5020565;28;20073;-72
2022/11/16 02:55:29;;;;;;;58.33;27.67;;;;;;;;;;5026855;28;20045;-73
2022/11/16 02:57:57;;;;;;;57.47;26.58;;;;;;;;;;5045046;28;20049;-73
2022/11/16 03:00:26;;;;;;;63.35;28.95;;;;;;;;;;5026791;28;20061;-72
2022/11/16 03:03:00;;;;;;;54.17;27.27;;;;;;;;;;5039344;28;20045;-72
2022/11/16 03:05:34;;;;;;;176.73;37.55;;;;;;;;;;5049408;28;20048;-72
2022/11/16 03:08:05;;;;;;;68.03;27.88;;;;;;;;;;5048074;28;20064;-72
2022/11/16 03:13:22;;;;;;;72.25;27.88;;;;;;;;;;5017484;28;20544;-72
2022/11/16 03:15:50;;;;;;;57.85;27.90;;;;;;;;;;5039844;28;20049;-72
2022/11/16 03:18:19;;;;;;;112.57;33.10;;;;;;;;;;5046282;28;20056;-73
2022/11/16 03:20:48;;;;;;;66.97;27.92;;;;;;;;;;5051967;28;20060;-72
2022/11/16 03:23:16;;;;;;;103.15;31.60;;;;;;;;;;5052501;28;20069;-72
2022/11/16 03:25:46;;;;;;;83.35;29.20;;;;;;;;;;5028204;28;20744;-72
2022/11/16 03:28:15;;;;;;;57.90;27.38;;;;;;;;;;5040272;28;20802;-71
2022/11/16 03:30:44;;;;;;;72.20;28.02;;;;;;;;;;5040185;28;20045;-71
2022/11/16 03:33:15;;;;;;;79.80;28.92;;;;;;;;;;5047296;28;20051;-71
2022/11/16 03:35:44;;;;;;;120.88;32.05;;;;;;;;;;5048451;28;20100;-72
2022/11/16 03:38:13;;;;;;;49.85;26.35;;;;;;;;;;5045414;28;20403;-72
2022/11/16 03:40:41;;;;;;;104.82;30.40;;;;;;;;;;5046449;28;20045;-72
2022/11/16 03:43:09;;;;;;;45.97;24.48;;;;;;;;;;5033245;28;20049;-72
2022/11/16 03:45:37;;;;;;;133.48;33.83;;;;;;;;;;5047869;28;20048;-72
2022/11/16 03:48:04;;;;;;;115.25;31.33;;;;;;;;;;5037201;28;20051;-72
2022/11/16 03:50:31;;;;;;;71.22;27.25;;;;;;;;;;5053210;28;20045;-72
2022/11/16 03:52:59;;;;;;;87.80;29.90;;;;;;;;;;5048628;28;20056;-71
2022/11/16 03:55:27;;;;;;;58.00;28.10;;;;;;;;;;5045929;28;20110;-72
2022/11/16 03:57:54;;;;;;;76.55;28.63;;;;;;;;;;5052671;28;20047;-71
2022/11/16 04:00:22;;;;;;;120.38;31.42;;;;;;;;;;5046637;28;20056;-72
2022/11/16 04:02:49;;;;;;;114.15;32.38;;;;;;;;;;5048614;28;20517;-72
2022/11/16 04:24:37;;;;;;;68.35;26.08;;;;;;;;;;5054714;28;20049;-71
2022/11/16 04:30:02;;;;;;;54.10;25.33;;;;;;;;;;5021215;28;20087;-71
2022/11/16 04:38:13;;;;;;;92.03;28.85;;;;;;;;;;4998320;28;20052;-71
2022/11/16 04:40:41;;;;;;;111.30;30.15;;;;;;;;;;5027768;28;20048;-71
2022/11/16 04:43:09;;;;;;;102.45;29.20;;;;;;;;;;5046821;28;20053;-71
2022/11/16 04:48:22;;;;;;;100.15;29.90;;;;;;;;;;5043897;28;20052;-71
2022/11/16 04:50:49;;;;;;;45.30;23.92;;;;;;;;;;5046397;28;20045;-72
2022/11/16 04:53:16;;;;;;;132.20;32.20;;;;;;;;;;5045767;28;20052;-71
2022/11/16 04:55:43;;;;;;;41.88;23.30;;;;;;;;;;5046607;28;20053;-71
2022/11/16 04:58:12;;;;;;;51.22;24.58;;;;;;;;;;5041263;28;20060;-71
2022/11/16 05:00:39;;;;;;;48.70;25.00;;;;;;;;;;5037532;28;20068;-70
2022/11/16 05:03:06;;;;;;;125.03;31.75;;;;;;;;;;5037670;28;20051;-70
2022/11/16 05:05:33;;;;;;;40.90;23.45;;;;;;;;;;5037545;28;20049;-71
2022/11/16 05:08:01;;;;;;;47.22;23.90;;;;;;;;;;5032327;28;20080;-70
2022/11/16 05:10:28;;;;;;;105.35;29.00;;;;;;;;;;5041768;28;20491;-70
2022/11/16 05:12:55;;;;;;;53.30;24.92;;;;;;;;;;5038578;28;20074;-70
2022/11/16 05:15:24;;;;;;;70.35;26.58;;;;;;;;;;5038152;28;20483;-70
2022/11/16 05:17:53;;;;;;;42.22;23.63;;;;;;;;;;5041982;28;20137;-70
2022/11/16 05:26:10;;;;;;;45.17;24.15;;;;;;;;;;4927933;28;20039;-73
2022/11/16 05:28:37;;;;;;;55.70;26.15;;;;;;;;;;5018030;28;20060;-70
2022/11/16 05:31:09;;;;;;;48.42;25.98;;;;;;;;;;5045561;28;20126;-70
2022/11/16 05:33:37;;;;;;;41.83;22.73;;;;;;;;;;5044857;28;20040;-69
2022/11/16 05:36:04;;;;;;;44.70;23.63;;;;;;;;;;5044898;28;20049;-70
2022/11/16 05:38:31;;;;;;;43.95;23.35;;;;;;;;;;5042824;28;20045;-69
2022/11/16 05:40:58;;;;;;;44.38;22.70;;;;;;;;;;5039757;28;20049;-69
2022/11/16 05:43:26;;;;;;;40.50;21.77;;;;;;;;;;5043380;28;20037;-69
2022/11/16 05:45:53;;;;;;;43.85;21.67;;;;;;;;;;5042576;28;20049;-69
2022/11/16 05:48:21;;;;;;;57.22;23.73;;;;;;;;;;5042848;28;20686;-69
2022/11/16 05:50:50;;;;;;;38.42;21.35;;;;;;;;;;5043503;28;20060;-70
2022/11/16 05:53:20;;;;;;;49.53;21.63;;;;;;;;;;5040829;28;20052;-69
2022/11/16 05:55:48;;;;;;;38.28;20.48;;;;;;;;;;5026266;28;20068;-68
2022/11/16 05:58:15;;;;;;;44.75;20.90;;;;;;;;;;5042083;28;20049;-69
2022/11/16 06:00:42;;;;;;;47.47;20.50;;;;;;;;;;5039137;28;20395;-68
2022/11/16 06:03:09;;;;;;;46.53;21.63;;;;;;;;;;5039620;28;20045;-69
2022/11/16 06:05:38;;;;;;;47.85;21.77;;;;;;;;;;5040087;28;20049;-69
2022/11/16 06:08:05;;;;;;;40.88;21.45;;;;;;;;;;5041058;28;20495;-69
2022/11/16 06:10:33;;;;;;;50.95;21.75;;;;;;;;;;5043532;28;20409;-67
2022/11/16 06:13:00;;;;;;;39.22;19.73;;;;;;;;;;5045659;28;20071;-68
2022/11/16 06:15:27;;;;;;;46.28;19.50;;;;;;;;;;5044701;28;20051;-69
2022/11/16 06:17:54;;;;;;;35.88;18.63;;;;;;;;;;5035410;28;20064;-68
2022/11/16 06:20:22;;;;;;;52.53;21.30;;;;;;;;;;5036910;28;20044;-69
2022/11/16 06:22:50;;;;;;;47.78;22.15;;;;;;;;;;5036840;28;20056;-69
2022/11/16 06:25:17;;;;;;;54.53;23.13;;;;;;;;;;5036547;28;20053;-70
2022/11/16 06:27:45;;;;;;;55.92;23.67;;;;;;;;;;5034884;28;20068;-70
2022/11/16 06:30:12;;;;;;;99.00;27.77;;;;;;;;;;5013578;28;20053;-69
2022/11/16 06:32:39;;;;;;;65.25;25.33;;;;;;;;;;5041400;28;20059;-71
2022/11/16 06:35:07;;;;;;;76.93;26.27;;;;;;;;;;5044366;28;20063;-69
2022/11/16 06:37:34;;;;;;;85.20;26.55;;;;;;;;;;5043517;28;20048;-71
2022/11/16 06:40:03;;;;;;;298.58;35.17;;;;;;;;;;5045976;28;20690;-71
2022/11/16 06:42:30;;;;;;;575.38;47.13;;;;;;;;;;5042882;28;20395;-71
2022/11/16 06:44:58;;;;;;;97.35;28.85;;;;;;;;;;5049488;28;20049;-71
2022/11/16 06:47:25;;;;;;;111.95;26.15;;;;;;;;;;5022551;28;20085;-71
2022/11/16 06:49:52;;;;;;;48.55;21.55;;;;;;;;;;5048629;28;20049;-71
2022/11/16 06:52:19;;;;;;;41.55;20.13;;;;;;;;;;5027813;28;20056;-70
2022/11/16 06:54:47;;;;;;;35.53;16.92;;;;;;;;;;5030922;28;20943;-71
2022/11/16 06:57:15;;;;;;;50.47;17.65;;;;;;;;;;5029602;28;20053;-71
2022/11/16 06:59:42;;;;;;;36.17;15.90;;;;;;;;;;5040560;28;20067;-71
2022/11/16 07:02:10;;;;;;;70.20;15.70;;;;;;;;;;5046196;28;20053;-71
2022/11/16 07:04:37;;;;;;;61.50;15.30;;;;;;;;;;5045882;28;20599;-71
2022/11/16 07:07:04;;;;;;;41.80;14.73;;;;;;;;;;5042091;28;20056;-71
2022/11/16 07:09:32;;;;;;;38.38;15.10;;;;;;;;;;5043842;28;20159;-71
2022/11/16 07:11:59;;;;;;;146.43;23.35;;;;;;;;;;5025233;28;20548;-71
2022/11/16 07:14:27;;;;;;;174.07;22.63;;;;;;;;;;5043589;28;20060;-71
2022/11/16 07:16:55;;;;;;;105.85;20.27;;;;;;;;;;5028756;28;20106;-71
2022/11/16 07:19:22;;;;;;;75.90;19.58;;;;;;;;;;5028496;28;20091;-71
2022/11/16 07:21:49;;;;;;;40.92;16.73;;;;;;;;;;5028819;28;20129;-71
2022/11/16 07:24:16;;;;;;;161.70;25.20;;;;;;;;;;5030621;28;20045;-71
2022/11/16 07:26:44;;;;;;;68.22;21.00;;;;;;;;;;5039023;28;20052;-71
2022/11/16 07:29:11;;;;;;;136.48;27.08;;;;;;;;;;5041081;28;20057;-71
2022/11/16 07:31:40;;;;;;;58.70;22.35;;;;;;;;;;5021951;28;20579;-71
2022/11/16 07:34:07;;;;;;;114.22;25.17;;;;;;;;;;5040865;28;20154;-71
2022/11/16 07:36:34;;;;;;;101.25;23.02;;;;;;;;;;5040037;28;20049;-71
2022/11/16 07:39:01;;;;;;;56.17;18.80;;;;;;;;;;5026141;28;20148;-71
2022/11/16 07:41:29;;;;;;;76.47;20.58;;;;;;;;;;5020218;28;20052;-71
2022/11/16 07:43:56;;;;;;;45.30;18.92;;;;;;;;;;5023318;28;20041;-72
2022/11/16 07:46:23;;;;;;;294.38;31.45;;;;;;;;;;5038291;28;20049;-72
2022/11/16 07:48:52;;;;;;;142.73;24.85;;;;;;;;;;5023836;28;20053;-71
2022/11/16 07:51:20;;;;;;;285.88;30.08;;;;;;;;;;5042100;28;20052;-71
2022/11/16 07:53:47;;;;;;;259.13;30.98;;;;;;;;;;5038883;28;20048;-71
2022/11/16 07:56:14;;;;;;;46.72;17.15;;;;;;;;;;5026662;28;20056;-71
2022/11/16 07:58:41;;;;;;;97.43;20.33;;;;;;;;;;5043683;28;20049;-71
2022/11/16 08:01:11;;;;;;;160.45;24.15;;;;;;;;;;5034777;28;20046;-71
2022/11/16 08:03:39;;;;;;;158.30;24.30;;;;;;;;;;5046235;28;20087;-71
2022/11/16 08:06:11;;;;;;;265.80;30.38;;;;;;;;;;5044417;28;20056;-71
2022/11/16 08:08:38;;;;;;;50.78;19.63;;;;;;;;;;5042438;28;20045;-71
2022/11/16 08:11:07;;;;;;;138.20;24.30;;;;;;;;;;5025457;28;20136;-71
2022/11/16 08:13:35;;;;;;;160.40;26.98;;;;;;;;;;5043220;28;20037;-71
2022/11/16 08:16:03;;;;;;;144.05;25.77;;;;;;;;;;5043144;28;20147;-72
2022/11/16 08:18:31;;;;;;;288.75;34.58;;;;;;;;;;5038983;28;20053;-71
2022/11/16 08:20:59;;;;;;;118.72;25.13;;;;;;;;;;5039574;28;20045;-71
2022/11/16 08:23:28;;;;;;;186.00;28.50;;;;;;;;;;5044655;28;20045;-71
2022/11/16 08:25:58;;;;;;;94.65;25.00;;;;;;;;;;5043258;28;20536;-71
2022/11/16 08:28:27;;;;;;;226.82;29.30;;;;;;;;;;5022101;28;20087;-71
2022/11/16 08:30:54;;;;;;;291.27;31.27;;;;;;;;;;5042392;28;20826;-71
2022/11/16 08:33:23;;;;;;;78.78;25.55;;;;;;;;;;5042663;28;20051;-72
2022/11/16 08:35:50;;;;;;;125.38;26.15;;;;;;;;;;5018189;28;20132;-71
2022/11/16 08:38:18;;;;;;;90.32;23.67;;;;;;;;;;5025946;28;20075;-72
2022/11/16 08:40:49;;;;;;;55.00;20.83;;;;;;;;;;5041985;28;20114;-72
2022/11/16 08:43:16;;;;;;;63.05;22.52;;;;;;;;;;5024202;28;20472;-72
2022/11/16 08:45:47;;;;;;;77.80;21.85;;;;;;;;;;5024849;28;20052;-71
2022/11/16 08:48:14;;;;;;;69.22;22.13;;;;;;;;;;5024018;28;20051;-72
2022/11/16 08:50:42;;;;;;;350.50;37.08;;;;;;;;;;5020896;28;20059;-71
2022/11/16 08:53:09;;;;;;;100.03;24.33;;;;;;;;;;5027561;28;20578;-71
2022/11/16 08:55:36;;;;;;;51.80;21.42;;;;;;;;;;5025058;28;20055;-71
2022/11/16 08:58:05;;;;;;;99.28;21.73;;;;;;;;;;5042017;28;20059;-72
2022/11/16 09:00:32;;;;;;;33.58;16.25;;;;;;;;;;5023534;28;20072;-71
2022/11/16 09:02:59;;;;;;;46.90;18.52;;;;;;;;;;5029545;28;20041;-71
2022/11/16 09:05:27;;;;;;;107.07;22.33;;;;;;;;;;5024320;28;20424;-71
2022/11/16 09:07:54;;;;;;;46.35;18.42;;;;;;;;;;5049156;28;20086;-71
2022/11/16 09:10:24;;;;;;;47.83;20.45;;;;;;;;;;5046654;28;20060;-71
2022/11/16 09:12:51;;;;;;;53.30;20.88;;;;;;;;;;5044489;28;20439;-72
2022/11/16 09:15:19;;;;;;;48.72;19.73;;;;;;;;;;5025411;28;20072;-72
2022/11/16 09:17:47;;;;;;;108.70;23.58;;;;;;;;;;5036786;28;20592;-71
2022/11/16 09:20:14;;;;;;;62.88;20.55;;;;;;;;;;5027735;28;20052;-71
2022/11/16 09:22:41;;;;;;;48.88;21.88;;;;;;;;;;5041034;28;20495;-71
2022/11/16 09:25:10;;;;;;;102.45;23.50;;;;;;;;;;5018065;28;20041;-72
2022/11/16 09:27:37;;;;;;;170.85;28.70;;;;;;;;;;5039854;28;20122;-71
2022/11/16 09:30:05;;;;;;;48.55;21.50;;;;;;;;;;5039137;28;20059;-71
2022/11/16 09:32:33;;;;;;;119.43;27.15;;;;;;;;;;5023753;28;20114;-71
2022/11/16 09:35:01;;;;;;;64.88;24.08;;;;;;;;;;5040005;28;20052;-71
2022/11/16 09:37:28;;;;;;;52.95;23.83;;;;;;;;;;5039897;28;20036;-71
2022/11/16 09:39:56;;;;;;;66.28;25.70;;;;;;;;;;5024826;28;20491;-70
2022/11/16 09:42:33;;;;;;;53.28;24.45;;;;;;;;;;5040643;28;20422;-71
2022/11/16 09:45:05;;;;;;;48.08;23.52;;;;;;;;;;5019959;28;20045;-71
2022/11/16 09:47:40;;;;;;;44.92;23.38;;;;;;;;;;5029631;28;20071;-71
2022/11/16 09:50:07;;;;;;;130.52;30.05;;;;;;;;;;5034436;28;20048;-71
2022/11/16 09:52:39;;;;;;;42.92;22.00;;;;;;;;;;5028495;28;20546;-70
2022/11/16 09:55:20;;;;;;;42.08;21.98;;;;;;;;;;5047248;28;20563;-72
2022/11/16 09:57:48;;;;;;;44.42;20.88;;;;;;;;;;5041116;28;20053;-71
2022/11/16 10:00:18;;;;;;;42.70;21.85;;;;;;;;;;5040305;28;20044;-71
2022/11/16 10:02:48;;;;;;;74.65;25.42;;;;;;;;;;5026765;28;20056;-70
2022/11/16 10:05:19;;;;;;;30.35;18.23;;;;;;;;;;5024475;28;20056;-71
2022/11/16 10:07:48;;;;;;;27.95;17.00;;;;;;;;;;5045671;28;20057;-71
2022/11/16 10:10:16;;;;;;;36.03;19.42;;;;;;;;;;5041787;28;20055;-71
2022/11/16 10:12:46;;;;;;;33.67;17.08;;;;;;;;;;5024882;28;20053;-70
2022/11/16 10:15:31;;;;;;;24.65;14.75;;;;;;;;;;5040089;28;20053;-71
2022/11/16 10:18:07;;;;;;;19.98;12.40;;;;;;;;;;5022052;28;20806;-70
2022/11/16 10:20:44;;;;;;;27.20;13.60;;;;;;;;;;5044464;28;20076;-71
2022/11/16 10:23:15;;;;;;;30.88;14.32;;;;;;;;;;5030728;28;20053;-70
2022/11/16 10:25:43;;;;;;;29.30;12.20;;;;;;;;;;5040669;28;20049;-71
2022/11/16 10:28:29;;;;;;;35.35;13.32;;;;;;;;;;5022353;28;20049;-71
2022/11/16 10:31:00;;;;;;;38.78;15.10;;;;;;;;;;5022465;28;20045;-70
2022/11/16 10:33:35;;;;;;;26.67;13.70;;;;;;;;;;5024758;28;20064;-70
2022/11/16 10:36:05;;;;;;;32.05;13.63;;;;;;;;;;5039499;28;20049;-70
2022/11/16 10:38:32;;;;;;;19.85;10.43;;;;;;;;;;5029822;28;20060;-71
2022/11/16 10:41:03;;;;;;;22.85;10.18;;;;;;;;;;5022798;28;20116;-70
2022/11/16 10:43:32;;;;;;;20.75;9.13;;;;;;;;;;5043083;28;20812;-70
2022/11/16 10:46:01;;;;;;;14.10;7.45;;;;;;;;;;5028792;28;20060;-71
2022/11/16 10:48:35;;;;;;;22.60;7.32;;;;;;;;;;5048552;28;20063;-71
2022/11/16 10:51:03;;;;;;;21.15;7.68;;;;;;;;;;5045086;28;20076;-70
2022/11/16 10:53:33;;;;;;;16.67;7.68;;;;;;;;;;5029273;28;20052;-71
2022/11/16 10:56:13;;;;;;;30.05;9.75;;;;;;;;;;5034320;28;20045;-71
2022/11/16 10:58:51;;;;;;;20.42;8.10;;;;;;;;;;5034561;28;20732;-71
2022/11/16 11:01:27;;;;;;;13.18;5.55;;;;;;;;;;5019675;28;20087;-71
2022/11/16 11:03:56;;;;;;;17.58;7.18;;;;;;;;;;5020500;28;20080;-71
2022/11/16 11:06:25;;;;;;;17.77;7.85;;;;;;;;;;5023569;28;20464;-70
2022/11/16 11:08:52;;;;;;;19.33;7.97;;;;;;;;;;5041720;28;20053;-70
2022/11/16 11:14:10;;;;;;;12.18;5.80;;;;;;;;;;5050593;28;20044;-70
2022/11/16 11:16:38;;;;;;;19.55;7.70;;;;;;;;;;5022057;28;20102;-71
2022/11/16 11:19:19;;;;;;;18.13;7.40;;;;;;;;;;5043643;28;20067;-71
2022/11/16 11:21:48;;;;;;;16.30;8.13;;;;;;;;;;5044986;28;20563;-71
2022/11/16 11:24:17;;;;;;;19.55;8.57;;;;;;;;;;5033107;28;20778;-71
2022/11/16 11:26:49;;;;;;;15.45;8.10;;;;;;;;;;5041278;28;20048;-70
2022/11/16 11:29:21;;;;;;;15.73;9.00;;;;;;;;;;5039677;28;20059;-71
2022/11/16 11:31:49;;;;;;;18.85;10.27;;;;;;;;;;5041335;28;20084;-71
2022/11/16 11:34:19;;;;;;;15.90;9.45;;;;;;;;;;5023989;28;20411;-72
2022/11/16 11:36:49;;;;;;;17.55;8.93;;;;;;;;;;5043545;28;20045;-74
2022/11/16 11:39:33;;;;;;;14.88;9.27;;;;;;;;;;5040355;28;20061;-73
2022/11/16 11:42:00;;;;;;;;;;;;;;;;;;5026867;28;20053;-74
2022/11/16 11:44:31;;;;;;;18.38;10.13;;;;;;;;;;5043058;28;19921;-74
2022/11/16 11:47:04;;;;;;;14.13;9.20;;;;;;;;;;5022970;28;20083;-73
2022/11/16 11:49:35;;;;;;;21.80;8.18;;;;;;;;;;5032707;28;20044;-74
2022/11/16 11:52:05;;;;;;;18.17;8.48;;;;;;;;;;5019493;28;20049;-73
2022/11/16 11:54:33;;;;;;;18.20;9.15;;;;;;;;;;5037902;28;20041;-72
2022/11/16 11:57:01;;;;;;;13.07;7.63;;;;;;;;;;5042138;28;20041;-73
2022/11/16 11:59:29;;;;;;;12.88;6.95;;;;;;;;;;5045801;28;20044;-73
2022/11/16 12:02:05;;;;;;;15.98;7.18;;;;;;;;;;5043548;28;20052;-72
2022/11/16 12:04:56;;;;;;;18.25;7.22;;;;;;;;;;5041810;28;20103;-74
2022/11/16 12:07:32;;;;;;;18.38;7.47;;;;;;;;;;5045198;28;20061;-74
2022/11/16 12:10:01;;;;;;;18.52;6.97;;;;;;;;;;5044454;28;20065;-74
2022/11/16 12:12:46;;;;;;;13.43;6.13;;;;;;;;;;5044884;28;20048;-74
2022/11/16 12:15:25;;;;;;;15.65;6.80;;;;;;;;;;5028991;28;20068;-73
2022/11/16 12:17:56;;;;;;;18.20;6.93;;;;;;;;;;5043034;28;20065;-73
2022/11/16 12:20:29;;;;;;;16.17;6.72;;;;;;;;;;5043565;28;20049;-72
2022/11/16 12:23:11;;;;;;;16.10;5.95;;;;;;;;;;5046823;28;20396;-73
2022/11/16 12:25:44;;;;;;;16.75;5.05;;;;;;;;;;5043787;28;20048;-73
2022/11/16 12:28:18;;;;;;;13.25;5.28;;;;;;;;;;5034430;28;20082;-72
2022/11/16 12:30:51;;;;;;;19.13;6.43;;;;;;;;;;5042023;28;20073;-72
2022/11/16 12:33:23;;;;;;;15.75;5.63;;;;;;;;;;5043510;28;20060;-73
2022/11/16 12:35:55;;;;;;;11.80;5.28;;;;;;;;;;5033570;28;20049;-73
2022/11/16 12:38:35;;;;;;;11.93;5.45;;;;;;;;;;5041200;28;20113;-72
2022/11/16 12:41:13;;;;;;;11.50;5.20;;;;;;;;;;5041922;28;20064;-73
2022/11/16 12:43:43;;;;;;;13.13;5.28;;;;;;;;;;5038389;28;20057;-73
2022/11/16 12:46:13;;;;;;;13.68;4.70;;;;;;;;;;5041629;28;20052;-73
2022/11/16 12:48:58;;;;;;;9.75;4.70;;;;;;;;;;5043000;28;20111;-73
2022/11/16 12:51:34;;;;;;;13.43;5.05;;;;;;;;;;5042541;28;20045;-73
2022/11/16 12:54:09;;;;;;;17.00;5.65;;;;;;;;;;5043049;28;20256;-73
2022/11/16 12:56:43;;;;;;;15.27;3.92;;;;;;;;;;5043334;28;20053;-73
2022/11/16 12:59:21;;;;;;;11.55;3.85;;;;;;;;;;5044699;28;20152;-73
2022/11/16 13:01:53;;;;;;;23.40;5.82;;;;;;;;;;5043564;28;20045;-73
2022/11/16 13:04:22;;;;;;;17.00;4.15;;;;;;;;;;5046083;28;20491;-73
2022/11/16 13:06:52;;;;;;;10.52;3.55;;;;;;;;;;5038477;28;20053;-73
2022/11/16 13:09:22;;;;;;;16.38;3.70;;;;;;;;;;5046804;28;20056;-73
2022/11/16 13:11:52;;;;;;;13.23;2.90;;;;;;;;;;5045772;28;20060;-73
2022/11/16 13:14:21;;;;;;;11.90;3.20;;;;;;;;;;5046102;28;20725;-73
2022/11/16 13:16:49;;;;;;;14.65;3.05;;;;;;;;;;5029293;28;20049;-73
2022/11/16 13:19:17;;;;;;;13.05;3.22;;;;;;;;;;5047069;28;20064;-73
2022/11/16 13:21:48;;;;;;;13.10;2.63;;;;;;;;;;5048119;28;20509;-73
2022/11/16 13:24:27;;;;;;;11.35;2.50;;;;;;;;;;5025982;28;20068;-73
2022/11/16 13:26:59;;;;;;;8.75;2.38;;;;;;;;;;5025774;28;20057;-73
2022/11/16 13:29:33;;;;;;;12.50;2.55;;;;;;;;;;5045994;28;20053;-73
2022/11/16 13:32:05;;;;;;;13.40;2.22;;;;;;;;;;5043477;28;20149;-73
2022/11/16 13:34:33;;;;;;;15.93;2.58;;;;;;;;;;5045714;28;20033;-73
2022/11/16 13:37:01;;;;;;;15.70;3.25;;;;;;;;;;5044734;28;20059;-73
2022/11/16 13:39:43;;;;;;;13.85;2.00;;;;;;;;;;5048040;28;20388;-73
2022/11/16 13:42:13;;;;;;;12.73;2.13;;;;;;;;;;5029789;28;20582;-73
2022/11/16 13:44:41;;;;;;;11.70;2.30;;;;;;;;;;5045459;28;20040;-74
2022/11/16 13:47:18;;;;;;;18.98;2.40;;;;;;;;;;5030319;28;20049;-73
2022/11/16 13:49:50;;;;;;;11.02;2.00;;;;;;;;;;5048427;28;20479;-73
2022/11/16 13:52:17;;;;;;;10.10;1.75;;;;;;;;;;5042074;28;20048;-74
2022/11/16 13:54:46;;;;;;;15.73;2.13;;;;;;;;;;5048540;28;20049;-74
2022/11/16 13:57:22;;;;;;;10.68;1.98;;;;;;;;;;5039757;28;20059;-73
2022/11/16 13:59:50;;;;;;;10.65;2.20;;;;;;;;;;5043560;28;20040;-73
2022/11/16 14:02:30;;;;;;;10.30;2.30;;;;;;;;;;5044574;28;20052;-74
2022/11/16 14:04:58;;;;;;;14.48;2.33;;;;;;;;;;5041724;28;20048;-73
2022/11/16 14:07:39;;;;;;;7.40;1.75;;;;;;;;;;5026975;28;20065;-74
2022/11/16 14:10:07;;;;;;;13.30;2.17;;;;;;;;;;5042820;28;20434;-74
2022/11/16 14:12:58;;;;;;;10.32;2.45;;;;;;;;;;5042425;28;20559;-73
2022/11/16 14:15:31;;;;;;;16.17;2.63;;;;;;;;;;5044464;28;20057;-74
2022/11/16 14:17:59;;;;;;;10.15;2.38;;;;;;;;;;5043104;28;20056;-74
2022/11/16 14:20:44;;;;;;;19.15;3.38;;;;;;;;;;5043394;28;20320;-73
2022/11/16 14:23:14;;;;;;;16.75;2.63;;;;;;;;;;5039401;28;20080;-73
2022/11/16 14:25:45;;;;;;;14.80;2.40;;;;;;;;;;5039534;28;20044;-74
2022/11/16 14:28:19;;;;;;;13.02;2.72;;;;;;;;;;5043081;28;20041;-74
2022/11/16 14:30:53;;;;;;;9.80;2.10;;;;;;;;;;5027561;28;20060;-74
2022/11/16 14:33:27;;;;;;;14.50;2.20;;;;;;;;;;5041872;28;20049;-73
2022/11/16 14:35:54;;;;;;;12.73;2.35;;;;;;;;;;5039829;28;20423;-73
2022/11/16 14:38:27;;;;;;;10.23;2.58;;;;;;;;;;5044684;28;20403;-73
2022/11/16 14:40:55;;;;;;;11.90;2.25;;;;;;;;;;5041855;28;20045;-74
2022/11/16 14:43:24;;;;;;;14.32;2.30;;;;;;;;;;5026544;28;20060;-73
2022/11/16 14:45:55;;;;;;;12.32;2.33;;;;;;;;;;5043619;28;20049;-73
2022/11/16 14:48:24;;;;;;;20.17;2.67;;;;;;;;;;5044649;28;20052;-73
2022/11/16 14:50:59;;;;;;;16.20;2.88;;;;;;;;;;5044045;28;20056;-73
2022/11/16 14:53:28;;;;;;;12.38;2.28;;;;;;;;;;5041792;28;20053;-73
2022/11/16 14:56:06;;;;;;;10.02;1.95;;;;;;;;;;5043120;28;20049;-73
2022/11/16 14:58:34;;;;;;;11.18;2.22;;;;;;;;;;5025466;28;20060;-73
2022/11/16 15:01:04;;;;;;;14.43;2.38;;;;;;;;;;5041401;28;20046;-73
2022/11/16 15:03:33;;;;;;;18.40;2.20;;;;;;;;;;5048333;28;20045;-73
2022/11/16 15:06:01;;;;;;;18.17;2.15;;;;;;;;;;5050329;28;20729;-73
2022/11/16 15:08:31;;;;;;;12.73;2.53;;;;;;;;;;5046866;28;20056;-73
2022/11/16 15:10:59;;;;;;;15.38;3.35;;;;;;;;;;5030217;28;20055;-73
2022/11/16 15:13:27;;;;;;;13.43;2.40;;;;;;;;;;5031532;28;20102;-73
2022/11/16 15:16:09;;;;;;;19.52;2.83;;;;;;;;;;5031683;28;20053;-73
2022/11/16 15:18:38;;;;;;;13.88;2.75;;;;;;;;;;5029375;28;20057;-73